Station Historical Data
Daily Summary for September 17, 2017 Units:  English    Metric   Both
« Previous Day
Next Day »
Daily Weekly Monthly Yearly Custom
  High: Low: Average:
Temperature: 83.5 °F 59.3 °F 70.9 °F
Dew Point: 66.8 °F 57.0 °F 61.7 °F
Humidity: 93% 51% 75%
Wind Speed: 5.0mph 0.0mph 0.7mph
Wind Gust: 8.0mph - -
Wind- - WSW
Pressure: 30.14 in 30.05 in -
Precipitation: 0.00 in    
Historical Graphs
 
 
Tabular Data for September 17, 2017
Time Temperature Dew Point Pressure Wind Wind Speed Wind Gust Humidity Rainfall Rate (Hourly)
00:04 65.3 °F 61.7 °F 30.14 in Calm     88% 0.00 in
00:09 65.1 °F 61.8 °F 30.14 in Calm     89% 0.00 in
00:14 64.9 °F 61.6 °F 30.14 in Calm     89% 0.00 in
00:19 64.8 °F 61.5 °F 30.14 in Calm     89% 0.00 in
00:24 64.5 °F 61.2 °F 30.14 in Calm     89% 0.00 in
00:29 64.3 °F 61.0 °F 30.13 in Calm     89% 0.00 in
00:34 64.1 °F 60.8 °F 30.13 in Calm     89% 0.00 in
00:39 63.9 °F 60.6 °F 30.13 in Calm     89% 0.00 in
00:44 63.9 °F 60.9 °F 30.13 in Calm     90% 0.00 in
00:49 63.7 °F 60.7 °F 30.13 in Calm     90% 0.00 in
00:54 63.6 °F 60.6 °F 30.13 in Calm     90% 0.00 in
00:59 63.4 °F 60.4 °F 30.13 in Calm     90% 0.00 in
01:05 63.2 °F 60.2 °F 30.13 in Calm     90% 0.00 in
01:10 63.2 °F 60.2 °F 30.13 in Calm     90% 0.00 in
01:15 63.1 °F 60.1 °F 30.13 in Calm     90% 0.00 in
01:20 62.9 °F 59.9 °F 30.13 in Calm     90% 0.00 in
01:25 62.8 °F 59.8 °F 30.13 in Calm     90% 0.00 in
01:30 62.7 °F 59.7 °F 30.13 in Calm     90% 0.00 in
01:35 62.6 °F 59.9 °F 30.13 in Calm     91% 0.00 in
01:40 62.9 °F 60.2 °F 30.13 in Calm     91% 0.00 in
01:45 62.9 °F 60.2 °F 30.13 in Calm     91% 0.00 in
01:50 62.9 °F 60.2 °F 30.13 in Calm     91% 0.00 in
01:55 62.9 °F 60.2 °F 30.13 in Calm     91% 0.00 in
02:00 62.8 °F 60.1 °F 30.13 in Calm     91% 0.00 in
02:10 62.8 °F 60.1 °F 30.13 in Calm     91% 0.00 in
02:15 62.6 °F 59.9 °F 30.12 in Calm     91% 0.00 in
02:20 62.4 °F 59.7 °F 30.12 in Calm     91% 0.00 in
02:25 62.3 °F 59.6 °F 30.12 in Calm     91% 0.00 in
02:30 62.2 °F 59.5 °F 30.12 in Calm     91% 0.00 in
02:35 62.1 °F 59.4 °F 30.12 in Calm     91% 0.00 in
02:40 61.9 °F 59.2 °F 30.12 in Calm     91% 0.00 in
02:45 61.7 °F 59.0 °F 30.12 in Calm     91% 0.00 in
02:50 61.6 °F 58.9 °F 30.12 in Calm     91% 0.00 in
02:55 61.5 °F 58.8 °F 30.12 in Calm     91% 0.00 in
03:00 61.5 °F 58.8 °F 30.12 in Calm     91% 0.00 in
03:05 61.6 °F 59.3 °F 30.12 in Calm     92% 0.00 in
03:10 61.5 °F 59.2 °F 30.12 in Calm     92% 0.00 in
03:15 61.5 °F 58.8 °F 30.12 in Calm     91% 0.00 in
03:20 61.3 °F 58.7 °F 30.12 in Calm     91% 0.00 in
03:25 61.3 °F 59.0 °F 30.12 in Calm     92% 0.00 in
03:30 61.2 °F 58.6 °F 30.12 in Calm     91% 0.00 in
03:35 61.1 °F 58.5 °F 30.12 in Calm     91% 0.00 in
03:40 60.9 °F 58.3 °F 30.12 in Calm     91% 0.00 in
03:45 60.8 °F 58.5 °F 30.12 in Calm     92% 0.00 in
03:50 60.6 °F 58.0 °F 30.12 in Calm     91% 0.00 in
03:55 60.6 °F 58.3 °F 30.12 in Calm     92% 0.00 in
04:00 60.6 °F 58.3 °F 30.12 in Calm     92% 0.00 in
04:05 60.5 °F 57.9 °F 30.13 in Calm     91% 0.00 in
04:10 60.3 °F 57.7 °F 30.13 in Calm     91% 0.00 in
04:14 60.3 °F 58.0 °F 30.13 in Calm     92% 0.00 in
04:20 60.4 °F 58.1 °F 30.12 in Calm     92% 0.00 in
04:25 60.5 °F 58.2 °F 30.12 in Calm     92% 0.00 in
04:30 60.5 °F 58.2 °F 30.12 in Calm     92% 0.00 in
04:35 60.4 °F 58.1 °F 30.13 in Calm     92% 0.00 in
04:40 60.3 °F 58.0 °F 30.13 in Calm     92% 0.00 in
04:45 60.3 °F 58.0 °F 30.13 in Calm     92% 0.00 in
04:50 60.3 °F 58.0 °F 30.13 in Calm     92% 0.00 in
04:54 60.3 °F 58.0 °F 30.13 in Calm     92% 0.00 in
05:00 60.0 °F 57.7 °F 30.13 in Calm     92% 0.00 in
05:05 59.8 °F 57.5 °F 30.13 in Calm     92% 0.00 in
05:10 59.7 °F 57.4 °F 30.13 in Calm     92% 0.00 in
05:15 59.5 °F 57.2 °F 30.13 in Calm     92% 0.00 in
05:20 59.6 °F 57.3 °F 30.13 in Calm     92% 0.00 in
05:24 59.7 °F 57.4 °F 30.13 in Calm     92% 0.00 in
05:29 59.7 °F 57.4 °F 30.13 in Calm     92% 0.00 in
05:34 59.5 °F 57.2 °F 30.13 in Calm     92% 0.00 in
05:40 59.6 °F 57.3 °F 30.13 in Calm     92% 0.00 in
05:45 59.6 °F 57.3 °F 30.13 in Calm     92% 0.00 in
05:50 59.5 °F 57.2 °F 30.13 in Calm     92% 0.00 in
05:55 59.6 °F 57.6 °F 30.13 in Calm     93% 0.00 in
06:00 59.8 °F 57.8 °F 30.13 in Calm     93% 0.00 in
06:05 59.8 °F 57.8 °F 30.13 in Calm     93% 0.00 in
06:10 59.8 °F 57.5 °F 30.13 in Calm     92% 0.00 in
06:15 59.7 °F 57.4 °F 30.13 in Calm     92% 0.00 in
06:20 59.5 °F 57.2 °F 30.14 in Calm     92% 0.00 in
06:25 59.4 °F 57.1 °F 30.14 in Calm     92% 0.00 in
06:29 59.6 °F 57.6 °F 30.14 in Calm     93% 0.00 in
06:35 59.7 °F 57.7 °F 30.13 in Calm     93% 0.00 in
06:40 59.7 °F 57.7 °F 30.14 in Calm     93% 0.00 in
06:45 59.7 °F 57.7 °F 30.14 in Calm     93% 0.00 in
06:49 59.7 °F 57.7 °F 30.14 in Calm     93% 0.00 in
06:54 59.6 °F 57.6 °F 30.14 in Calm     93% 0.00 in
07:00 59.4 °F 57.1 °F 30.14 in Calm     92% 0.00 in
07:04 59.3 °F 57.0 °F 30.14 in Calm     92% 0.00 in
07:10 59.3 °F 57.3 °F 30.14 in Calm     93% 0.00 in
07:15 59.4 °F 57.4 °F 30.14 in Calm     93% 0.00 in
07:20 59.6 °F 57.6 °F 30.14 in Calm     93% 0.00 in
07:25 59.6 °F 57.6 °F 30.14 in Calm     93% 0.00 in
07:29 60.0 °F 58.0 °F 30.14 in Calm     93% 0.00 in
07:34 60.2 °F 58.2 °F 30.14 in Calm     93% 0.00 in
07:40 60.4 °F 58.4 °F 30.14 in Calm     93% 0.00 in
07:45 60.6 °F 58.6 °F 30.14 in Calm     93% 0.00 in
07:49 60.9 °F 58.9 °F 30.14 in Calm     93% 0.00 in
07:54 61.3 °F 59.3 °F 30.14 in Calm     93% 0.00 in
07:59 61.6 °F 59.6 °F 30.14 in Calm     93% 0.00 in
08:04 61.8 °F 59.5 °F 30.14 in Calm     92% 0.00 in
08:10 62.1 °F 59.7 °F 30.14 in Calm     92% 0.00 in
08:15 62.4 °F 60.0 °F 30.14 in Calm     92% 0.00 in
08:20 62.9 °F 60.5 °F 30.14 in Calm     92% 0.00 in
08:25 63.3 °F 60.6 °F 30.14 in Calm     91% 0.00 in
08:29 63.8 °F 60.8 °F 30.14 in Calm     90% 0.00 in
08:34 64.2 °F 61.2 °F 30.14 in Calm     90% 0.00 in
08:39 64.6 °F 61.3 °F 30.14 in Calm     89% 0.00 in
08:45 64.9 °F 61.3 °F 30.14 in Calm     88% 0.00 in
08:50 65.6 °F 61.6 °F 30.14 in Calm     87% 0.00 in
08:55 66.0 °F 61.7 °F 30.14 in Calm     86% 0.00 in
08:59 66.5 °F 61.8 °F 30.14 in Calm     85% 0.00 in
09:04 67.0 °F 62.3 °F 30.14 in Calm     85% 0.00 in
09:09 67.3 °F 62.3 °F 30.14 in Calm     84% 0.00 in
09:14 67.7 °F 62.3 °F 30.14 in Calm     83% 0.00 in
09:19 68.0 °F 62.3 °F 30.14 in Calm     82% 0.00 in
09:24 68.7 °F 63.0 °F 30.14 in Calm     82% 0.00 in
09:29 69.2 °F 63.1 °F 30.14 in Calm     81% 0.00 in
09:34 69.7 °F 63.6 °F 30.14 in Calm     81% 0.00 in
09:39 70.1 °F 63.3 °F 30.14 in Calm     79% 0.00 in
09:44 71.2 °F 64.0 °F 30.14 in Calm     78% 0.00 in
09:49 71.4 °F 64.2 °F 30.14 in Calm     78% 0.00 in
09:54 71.7 °F 64.1 °F 30.14 in Calm     77% 0.00 in
09:59 72.4 °F 64.4 °F 30.14 in Calm     76% 0.00 in
10:04 72.9 °F 64.1 °F 30.13 in Calm     74% 0.00 in
10:09 73.2 °F 64.4 °F 30.13 in Calm     74% 0.00 in
10:14 73.5 °F 64.7 °F 30.14 in Calm     74% 0.00 in
10:20 74.2 °F 65.0 °F 30.14 in Calm     73% 0.00 in
10:25 74.7 °F 65.1 °F 30.14 in Calm     72% 0.00 in
10:29 74.7 °F 64.7 °F 30.14 in SW 1.0 mph 5.0 mph 71% 0.00 in
10:39 75.4 °F 65.3 °F 30.13 in WSW 3.0 mph 4.0 mph 71% 0.00 in
10:44 76.0 °F 65.5 °F 30.13 in Calm   3.0 mph 70% 0.00 in
10:49 76.1 °F 65.2 °F 30.13 in SW 3.0 mph 5.0 mph 69% 0.00 in
10:54 76.4 °F 66.3 °F 30.13 in SSW 1.0 mph 4.0 mph 71% 0.00 in
10:59 76.8 °F 65.9 °F 30.13 in SSE 3.0 mph 4.0 mph 69% 0.00 in
11:04 77.1 °F 66.1 °F 30.13 in South 1.0 mph 4.0 mph 69% 0.00 in
11:09 77.2 °F 65.8 °F 30.13 in SSW 2.0 mph 5.0 mph 68% 0.00 in
11:14 77.4 °F 66.0 °F 30.13 in SSW 2.0 mph 6.0 mph 68% 0.00 in
11:20 77.2 °F 65.0 °F 30.13 in Calm   5.0 mph 66% 0.00 in
11:25 77.5 °F 66.1 °F 30.13 in SW 3.0 mph 4.0 mph 68% 0.00 in
11:29 77.8 °F 66.4 °F 30.13 in SW 1.0 mph 4.0 mph 68% 0.00 in
11:34 78.7 °F 66.8 °F 30.13 in WSW 1.0 mph 4.0 mph 67% 0.00 in
11:39 79.0 °F 66.2 °F 30.13 in WSW 1.0 mph 4.0 mph 65% 0.00 in
11:44 78.8 °F 66.0 °F 30.13 in SSW 1.0 mph 5.0 mph 65% 0.00 in
11:50 79.4 °F 66.2 °F 30.13 in SW 2.0 mph 5.0 mph 64% 0.00 in
11:54 79.5 °F 64.9 °F 30.13 in WSW 2.0 mph 5.0 mph 61% 0.00 in
11:59 79.5 °F 64.4 °F 30.13 in WSW 2.0 mph 5.0 mph 60% 0.00 in
12:04 79.3 °F 65.1 °F 30.12 in WSW 4.0 mph 5.0 mph 62% 0.00 in
12:09 79.5 °F 64.4 °F 30.12 in WNW 2.0 mph 4.0 mph 60% 0.00 in
12:14 79.6 °F 64.5 °F 30.13 in NW 4.0 mph 5.0 mph 60% 0.00 in
12:19 79.6 °F 65.4 °F 30.12 in Calm   5.0 mph 62% 0.00 in
12:24 80.2 °F 66.0 °F 30.12 in West 4.0 mph 6.0 mph 62% 0.00 in
12:29 79.9 °F 64.3 °F 30.12 in West 3.0 mph 6.0 mph 59% 0.00 in
12:34 79.7 °F 64.6 °F 30.12 in WSW 2.0 mph 4.0 mph 60% 0.00 in
12:39 80.5 °F 65.8 °F 30.12 in WSW 2.0 mph 5.0 mph 61% 0.00 in
12:44 80.3 °F 65.1 °F 30.12 in WSW 3.0 mph 5.0 mph 60% 0.00 in
12:50 80.1 °F 65.0 °F 30.12 in WSW 2.0 mph 5.0 mph 60% 0.00 in
12:55 81.0 °F 66.3 °F 30.12 in West 3.0 mph 5.0 mph 61% 0.00 in
12:59 81.7 °F 66.0 °F 30.12 in WSW 2.0 mph 6.0 mph 59% 0.00 in
13:04 81.2 °F 65.5 °F 30.12 in SW 4.0 mph 6.0 mph 59% 0.00 in
13:09 81.1 °F 64.9 °F 30.11 in West 1.0 mph 8.0 mph 58% 0.00 in
13:14 81.1 °F 64.9 °F 30.11 in West 3.0 mph 6.0 mph 58% 0.00 in
13:19 80.8 °F 64.1 °F 30.11 in West 2.0 mph 7.0 mph 57% 0.00 in
13:24 80.6 °F 64.5 °F 30.11 in SSW 4.0 mph 7.0 mph 58% 0.00 in
13:29 81.1 °F 65.9 °F 30.10 in SW 2.0 mph 7.0 mph 60% 0.00 in
13:34 81.2 °F 64.5 °F 30.11 in WSW 2.0 mph 7.0 mph 57% 0.00 in
13:39 81.1 °F 64.9 °F 30.10 in WSW 3.0 mph 6.0 mph 58% 0.00 in
13:44 81.4 °F 65.2 °F 30.10 in SW 3.0 mph 7.0 mph 58% 0.00 in
13:49 81.4 °F 64.7 °F 30.10 in SW 3.0 mph 6.0 mph 57% 0.00 in
13:54 81.9 °F 64.7 °F 30.09 in Calm   5.0 mph 56% 0.00 in
13:59 81.5 °F 65.3 °F 30.09 in WSW 2.0 mph 5.0 mph 58% 0.00 in
14:04 81.8 °F 65.1 °F 30.09 in WSW 2.0 mph 6.0 mph 57% 0.00 in
14:09 81.4 °F 64.2 °F 30.09 in WSW 1.0 mph 4.0 mph 56% 0.00 in
14:14 81.1 °F 64.4 °F 30.08 in West 5.0 mph 6.0 mph 57% 0.00 in
14:19 81.6 °F 64.9 °F 30.08 in West 1.0 mph 5.0 mph 57% 0.00 in
14:24 81.9 °F 66.2 °F 30.08 in West 2.0 mph 3.0 mph 59% 0.00 in
14:29 82.4 °F 64.6 °F 30.08 in West 2.0 mph 5.0 mph 55% 0.00 in
14:34 81.8 °F 64.6 °F 30.08 in West 2.0 mph 5.0 mph 56% 0.00 in
14:39 82.1 °F 64.8 °F 30.08 in WNW 2.0 mph 5.0 mph 56% 0.00 in
14:44 82.3 °F 65.0 °F 30.08 in West 2.0 mph 5.0 mph 56% 0.00 in
14:49 82.2 °F 63.9 °F 30.08 in NNW 2.0 mph 4.0 mph 54% 0.00 in
14:55 82.0 °F 64.2 °F 30.08 in West 1.0 mph 2.0 mph 55% 0.00 in
14:59 82.1 °F 63.8 °F 30.08 in WSW 1.0 mph 5.0 mph 54% 0.00 in
15:04 82.1 °F 64.3 °F 30.08 in WSW 2.0 mph 5.0 mph 55% 0.00 in
15:09 82.7 °F 64.9 °F 30.08 in WSW 1.0 mph 4.0 mph 55% 0.00 in
15:14 83.5 °F 65.1 °F 30.07 in SW 3.0 mph 5.0 mph 54% 0.00 in
15:19 83.1 °F 64.2 °F 30.08 in Calm   5.0 mph 53% 0.00 in
15:24 82.9 °F 64.0 °F 30.07 in SW 2.0 mph 3.0 mph 53% 0.00 in
15:29 82.9 °F 64.0 °F 30.07 in SW 2.0 mph 5.0 mph 53% 0.00 in
15:34 82.9 °F 63.5 °F 30.07 in SW 3.0 mph 5.0 mph 52% 0.00 in
15:39 82.4 °F 63.5 °F 30.07 in Calm   4.0 mph 53% 0.00 in
15:44 82.7 °F 62.7 °F 30.07 in WSW 3.0 mph 3.0 mph 51% 0.00 in
15:49 82.5 °F 63.6 °F 30.06 in WSW 2.0 mph 8.0 mph 53% 0.00 in
15:54 82.5 °F 63.1 °F 30.07 in WSW 1.0 mph 5.0 mph 52% 0.00 in
15:59 82.4 °F 64.1 °F 30.06 in WSW 2.0 mph 6.0 mph 54% 0.00 in
16:04 82.6 °F 63.7 °F 30.06 in WSW 2.0 mph 6.0 mph 53% 0.00 in
16:09 82.7 °F 63.8 °F 30.06 in West 2.0 mph 6.0 mph 53% 0.00 in
16:14 82.8 °F 63.9 °F 30.06 in WSW 2.0 mph 6.0 mph 53% 0.00 in
16:19 82.6 °F 64.3 °F 30.06 in SW 1.0 mph 7.0 mph 54% 0.00 in
16:29 82.4 °F 63.5 °F 30.06 in SSW 3.0 mph 5.0 mph 53% 0.00 in
16:34 82.6 °F 64.3 °F 30.06 in WSW 2.0 mph 5.0 mph 54% 0.00 in
16:39 82.8 °F 63.9 °F 30.06 in WNW 3.0 mph 4.0 mph 53% 0.00 in
16:44 82.5 °F 64.2 °F 30.06 in WSW 2.0 mph 4.0 mph 54% 0.00 in
16:49 82.4 °F 64.1 °F 30.06 in WSW 2.0 mph 5.0 mph 54% 0.00 in
16:54 82.4 °F 63.0 °F 30.06 in Calm   4.0 mph 52% 0.00 in
16:59 82.2 °F 63.4 °F 30.06 in SW 3.0 mph 4.0 mph 53% 0.00 in
17:04 82.0 °F 63.7 °F 30.06 in SW 1.0 mph 6.0 mph 54% 0.00 in
17:09 81.9 °F 63.6 °F 30.06 in WSW 2.0 mph 6.0 mph 54% 0.00 in
17:14 82.0 °F 62.6 °F 30.06 in WSW 2.0 mph 5.0 mph 52% 0.00 in
17:19 82.1 °F 62.7 °F 30.06 in SW 2.0 mph 5.0 mph 52% 0.00 in
17:24 82.0 °F 62.6 °F 30.05 in SW 2.0 mph 5.0 mph 52% 0.00 in
17:29 81.8 °F 63.0 °F 30.06 in West 3.0 mph 4.0 mph 53% 0.00 in
17:34 81.6 °F 62.3 °F 30.06 in West 2.0 mph 4.0 mph 52% 0.00 in
17:39 81.4 °F 62.1 °F 30.06 in West 3.0 mph 4.0 mph 52% 0.00 in
17:44 81.2 °F 62.4 °F 30.06 in West 2.0 mph 4.0 mph 53% 0.00 in
17:49 81.1 °F 61.8 °F 30.05 in SW 3.0 mph 4.0 mph 52% 0.00 in
17:54 81.1 °F 62.3 °F 30.05 in WSW 4.0 mph 4.0 mph 53% 0.00 in
17:59 80.8 °F 61.5 °F 30.05 in Calm   5.0 mph 52% 0.00 in
18:04 80.7 °F 61.4 °F 30.05 in West 2.0 mph 5.0 mph 52% 0.00 in
18:09 80.5 °F 60.7 °F 30.05 in WSW 1.0 mph 6.0 mph 51% 0.00 in
18:14 80.3 °F 61.1 °F 30.05 in WSW 1.0 mph 6.0 mph 52% 0.00 in
18:19 80.1 °F 61.4 °F 30.05 in WSW 2.0 mph 4.0 mph 53% 0.00 in
18:29 79.9 °F 60.7 °F 30.05 in Calm   2.0 mph 52% 0.00 in
18:34 79.8 °F 60.6 °F 30.05 in WSW 1.0 mph 4.0 mph 52% 0.00 in
18:39 79.6 °F 60.4 °F 30.05 in Calm   3.0 mph 52% 0.00 in
18:44 79.4 °F 60.2 °F 30.05 in Calm     52% 0.00 in
18:49 79.1 °F 60.5 °F 30.05 in Calm   2.0 mph 53% 0.00 in
18:54 78.8 °F 60.2 °F 30.05 in Calm     53% 0.00 in
18:59 78.6 °F 60.0 °F 30.05 in Calm     53% 0.00 in
19:04 77.7 °F 60.2 °F 30.05 in Calm     55% 0.00 in
19:09 77.4 °F 60.0 °F 30.05 in Calm     55% 0.00 in
19:14 77.0 °F 60.6 °F 30.05 in Calm     57% 0.00 in
19:19 76.4 °F 60.5 °F 30.05 in Calm     58% 0.00 in
19:24 75.9 °F 60.5 °F 30.05 in Calm     59% 0.00 in
19:29 75.6 °F 60.7 °F 30.05 in Calm     60% 0.00 in
19:34 75.2 °F 60.4 °F 30.05 in Calm     60% 0.00 in
19:39 74.5 °F 60.6 °F 30.05 in Calm     62% 0.00 in
19:44 74.5 °F 60.6 °F 30.06 in Calm     62% 0.00 in
19:49 74.3 °F 60.4 °F 30.05 in Calm     62% 0.00 in
19:54 74.3 °F 60.4 °F 30.05 in Calm     62% 0.00 in
19:59 74.0 °F 61.0 °F 30.05 in Calm     64% 0.00 in
20:04 73.8 °F 60.9 °F 30.06 in Calm     64% 0.00 in
20:09 73.6 °F 60.7 °F 30.06 in Calm     64% 0.00 in
20:14 73.4 °F 60.5 °F 30.06 in Calm     64% 0.00 in
20:19 73.3 °F 60.8 °F 30.06 in Calm     65% 0.00 in
20:24 73.0 °F 60.5 °F 30.06 in Calm     65% 0.00 in
20:29 72.6 °F 60.6 °F 30.06 in Calm     66% 0.00 in
20:34 72.7 °F 61.1 °F 30.06 in Calm     67% 0.00 in
20:39 73.0 °F 62.2 °F 30.06 in Calm     69% 0.00 in
20:44 73.1 °F 62.3 °F 30.06 in Calm     69% 0.00 in
20:49 73.2 °F 62.8 °F 30.06 in Calm     70% 0.00 in
20:54 72.7 °F 62.3 °F 30.06 in Calm     70% 0.00 in
20:59 71.9 °F 62.8 °F 30.07 in Calm     73% 0.00 in
21:09 71.6 °F 62.9 °F 30.08 in Calm     74% 0.00 in
21:14 71.2 °F 62.9 °F 30.08 in Calm     75% 0.00 in
21:19 70.9 °F 63.3 °F 30.08 in Calm     77% 0.00 in
21:24 71.0 °F 63.8 °F 30.08 in Calm     78% 0.00 in
21:29 71.3 °F 64.1 °F 30.08 in Calm     78% 0.00 in
21:34 71.6 °F 64.0 °F 30.08 in Calm     77% 0.00 in
21:39 71.7 °F 63.7 °F 30.08 in Calm     76% 0.00 in
21:44 71.7 °F 63.7 °F 30.08 in Calm     76% 0.00 in
21:49 71.3 °F 63.3 °F 30.08 in Calm     76% 0.00 in
21:54 70.8 °F 63.2 °F 30.08 in Calm     77% 0.00 in
21:59 70.3 °F 63.1 °F 30.08 in Calm     78% 0.00 in
22:04 69.8 °F 63.0 °F 30.08 in Calm     79% 0.00 in
22:09 69.4 °F 62.6 °F 30.08 in Calm     79% 0.00 in
22:14 69.1 °F 62.7 °F 30.08 in Calm     80% 0.00 in
22:19 68.8 °F 62.4 °F 30.08 in Calm     80% 0.00 in
22:24 68.7 °F 62.3 °F 30.08 in Calm     80% 0.00 in
22:29 68.5 °F 62.1 °F 30.08 in Calm     80% 0.00 in
22:34 68.4 °F 62.3 °F 30.08 in Calm     81% 0.00 in
22:44 68.4 °F 62.3 °F 30.08 in Calm     81% 0.00 in
22:49 68.4 °F 62.0 °F 30.08 in Calm     80% 0.00 in
22:54 68.2 °F 62.1 °F 30.08 in Calm     81% 0.00 in
22:59 68.1 °F 62.0 °F 30.08 in Calm     81% 0.00 in
23:04 67.9 °F 61.9 °F 30.08 in Calm     81% 0.00 in
23:09 67.8 °F 62.1 °F 30.08 in Calm     82% 0.00 in
23:19 67.5 °F 61.8 °F 30.08 in Calm     82% 0.00 in
23:24 67.4 °F 62.1 °F 30.08 in Calm     83% 0.00 in
23:29 67.4 °F 62.1 °F 30.08 in Calm     83% 0.00 in
23:34 67.6 °F 62.3 °F 30.08 in Calm     83% 0.00 in
23:39 67.7 °F 62.3 °F 30.08 in Calm     83% 0.00 in
23:44 67.5 °F 62.2 °F 30.07 in Calm     83% 0.00 in
23:49 67.3 °F 62.3 °F 30.08 in Calm     84% 0.00 in
23:54 66.9 °F 61.9 °F 30.07 in Calm     84% 0.00 in
23:59 66.8 °F 62.1 °F 30.07 in Calm     85% 0.00 in
Buffalo, New York, USA
Compliments of Weather Underground - 2.5 mb